Vicente Lorenzo

Chefscout - Huesca
16 Apr 2028
Sonntag
Verarbeitung

Persönlichkeit

Anpassungsfähigkeit (3) Ehrgeiz (18) Kontroverse (8) Loyalität (8) Druck (15) Professionalität (15) Fairness (9) Temperament (15)

Profil

Trainerstil Demokratisch
Lizenz Nationale A
Entschlossenheit 9
Menschenführung 11
Motivation 4
Disziplin 12
Arbeitszufriedenheit
100%
Ermüdung
0%
Rolle Chefscout
Gehalt 71.0K p/W
Vertrag 14.03.2030

Leistung

Verhalten Gut
Trainingseffektivität
34%
Spielerentwicklung
40%
Verletzungsprävention
50%
Taktische Umsetzung
35%

Letzte Ereignisse

Nahm an einer Scouting-Besprechung teil jetzt
Empfahl ein Transferziel jetzt
Nahm an einer Scouting-Besprechung teil jetzt
Nahm an einer Scouting-Besprechung teil jetzt
Spieler begutachtet jetzt
Spieler begutachtet jetzt
Spieler begutachtet jetzt
Spieler begutachtet jetzt

Aktuell beobachtet

207
Spieler Verein Status Fähigkeit Vertrauen Beobachtet Zuletzt beobachtet Letzte Stimme
Salvador Blopá Sporting CP Aktiv 129 / 124 40% 2 14.04.2028 -
Cheveyo Tsawa Club Brugge Aktiv 130 / 126 40% 1 14.04.2028 -
Pape Diong Westerlo Aktiv 118 / 128 40% 1 13.04.2028 -
Vojislav Jokić OFK Beograd Aktiv 112 / 112 40% 1 13.04.2028 -
Dylan Martínez River Plate Aktiv 88 / 104 40% 2 12.04.2028 -
Konta Ismaily Aktiv 113 / 109 40% 1 12.04.2028 -
Tobías Ramírez River Plate Aktiv 119 / 131 40% 1 12.04.2028 -
Juan Pablo García Atlético Tucumán Aktiv 84 / 95 40% 1 12.04.2028 -
Thiago Parga Huracán Aktiv 108 / 107 40% 3 11.04.2028 -
José Quevedo Tigres Aktiv 84 / 90 40% 1 11.04.2028 -
Jorge Salinas Racing Santander Aktiv 138 / 132 40% 1 08.04.2028 -
Victor Hernandez Santa Fe Aktiv 110 / 123 40% 3 07.04.2028 -
Jan Bürger Northampton Town Aktiv 111 / 120 40% 2 07.04.2028 -
Gabriel Sanchez Zamalek Aktiv 101 / 117 40% 1 07.04.2028 -
Manuel Pereyra Tigre Aktiv 99 / 99 40% 1 07.04.2028 -
Daniel Banjaqui Benfica Aktiv 118 / 123 40% 2 03.04.2028 -
Bernardo Lima Porto Aktiv 113 / 116 40% 1 03.04.2028 -
Josh King Newcastle United Aktiv 148 / 152 40% 2 19.03.2028 -
Martim Cunha Porto Aktiv 109 / 110 40% 1 19.03.2028 -
Lucas Høgsberg RC Strasbourg Aktiv 144 / 143 40% 2 17.03.2028 -
Ayden Heaven Portsmouth Aktiv 150 / 146 40% 1 15.03.2028 -
Josh Acheampong Everton Aktiv 149 / 151 40% 3 14.03.2028 -
Riquelme Thompson-Jones Accrington Stanley Aktiv 102 / 110 40% 2 14.03.2028 -
Adam Aznou Everton Aktiv 125 / 127 40% 1 12.03.2028 -
Josh Nichols Oldham Athletic Aktiv 124 / 131 40% 2 11.03.2028 -
Kiani Inge Groningen Aktiv 105 / 119 40% 1 08.03.2028 -
Melvin Vučenović Persson Atvidaberg Aktiv 100 / 94 40% 1 06.03.2028 -
Andrey Ivlev Nizhniy Novgorod Aktiv 104 / 119 40% 1 06.03.2028 -
Tiziano Delias Sarmiento Aktiv 94 / 99 40% 5 01.01.2028 -
Mao Hosoya Santos Verhandlung 134 / 135 67% 1 01.01.2028 -
Matěj Ryneš AS Nancy Verhandlung 122 / 123 67% 1 01.01.2028 -
Matías Zorzoli Newell's Old Boys Aktiv 103 / 105 40% 3 31.12.2027 -
Gonçalo Sobral Benfica Aktiv 85 / 104 40% 2 31.12.2027 -
Juan Manuel Centurión Independiente Aktiv 84 / 100 40% 3 30.12.2027 -
Jorge Sánchez Carabobo Aktiv 104 / 101 40% 1 30.12.2027 -
Franco Yennerich Talleres Aktiv 95 / 91 40% 3 29.12.2027 -
Tobías Mendoza Estudiantes Aktiv 86 / 99 40% 1 29.12.2027 -
Agustín Nogueira Barracas Central Aktiv 105 / 105 40% 2 28.12.2027 -
Diego Bolaños Veracruz Aktiv 80 / 90 40% 2 28.12.2027 -
Carlos Hernández Deportivo Riestra Aktiv 95 / 93 40% 1 25.12.2027 -
Dylan Moody Cheltenham Town Aktiv 112 / 131 40% 4 23.12.2027 -
Felipe Igón Racing Club Aktiv 94 / 111 40% 1 22.12.2027 -
Lautaro Vera Platense Aktiv 90 / 101 40% 1 22.12.2027 -
Enzo Romero Defensa y Justicia Aktiv 79 / 96 40% 1 21.12.2027 -
Benicio Romero Racing Club Aktiv 84 / 99 40% 1 21.12.2027 -
Emiliano Zacca Deportivo Riestra Aktiv 102 / 106 40% 1 20.12.2027 -
Jhusstyn Rentería Atletico Nacional Aktiv 88 / 101 40% 1 20.12.2027 -
Jack Wint Sibenik Aktiv 107 / 99 40% 5 18.12.2027 -
Axel Afonso Atlético Tucumán Aktiv 98 / 103 40% 2 15.12.2027 -
Joaquín Mancuso Vélez Aktiv 80 / 100 40% 1 12.12.2027 -
Martín Almeida Montevideo City Torque Aktiv 93 / 102 40% 1 11.12.2027 -
Jeremías Merlo Gimnasia La Plata Aktiv 123 / 124 40% 3 10.12.2027 -
Maren Kefas Plateau United Aktiv 100 / 100 40% 1 10.12.2027 -
Máximo Leguizamón Tigre Aktiv 91 / 102 40% 3 08.12.2027 -
Robert Cook Accrington Stanley Aktiv 100 / 114 40% 2 08.12.2027 -
Bautista Carboni Defensores Unidos Aktiv 99 / 108 40% 2 06.12.2027 -
Luis Yanes Real Cartagena Aktiv 101 / 97 40% 2 06.12.2027 -
Julian Eyestone Brentford Aktiv 127 / 137 40% 1 06.12.2027 -
Luis Mateus Atletico Bucaramanga Aktiv 80 / 92 40% 1 04.12.2027 -
Sam Proctor Salford City Aktiv 122 / 125 40% 1 02.12.2027 -
Vuk Draškić OFK Beograd Aktiv 102 / 125 40% 1 02.12.2027 -
Francisco Ventre Huracán Aktiv 80 / 92 40% 1 01.12.2027 -
Uriel Ramos Austria Wien Aktiv 96 / 105 40% 1 29.11.2027 -
Tomás Chetelain Estudiantes Aktiv 89 / 98 40% 1 29.11.2027 -
Felipe Pontoni Talleres Aktiv 88 / 100 40% 1 28.11.2027 -
Francisco Marchant Colo-Colo Aktiv 107 / 96 40% 2 25.11.2027 -
Joel Medina Independiente Aktiv 122 / 120 40% 1 25.11.2027 -
Tiago Pucciarelli IF Elfsborg Aktiv 101 / 101 40% 1 23.11.2027 -
Gerardo Díaz San Martín SJ Aktiv 102 / 102 40% 1 22.11.2027 -
Renato Ardissono San Lorenzo Aktiv 99 / 99 40% 1 18.11.2027 -
Martín D'Aurizio Huracán Aktiv 106 / 104 40% 1 16.11.2027 -
Matías Vilalta Giana Erminio Aktiv 82 / 96 40% 1 14.11.2027 -
Valentín Catalán Argentinos Juniors Aktiv 91 / 93 40% 2 13.11.2027 -
Thiago Cano Banfield Aktiv 99 / 99 40% 1 11.11.2027 -
Hassan Beja AFC Leopards Aktiv 82 / 87 40% 2 10.11.2027 -
Abdulrahman Hamisu Niger Tornadoes Aktiv 77 / 84 40% 1 10.11.2027 -
Agustín De la Cuesta Racing Aktiv 116 / 118 40% 2 09.11.2027 -
Tomás Aranda Boca Juniors Aktiv 105 / 124 40% 1 07.11.2027 -
Máximo Núñez Los Andes Aktiv 105 / 100 40% 1 05.11.2027 -
Ulíses López Barracas Central Aktiv 87 / 93 40% 1 05.11.2027 -
Mustapha Umar Kano Pillars Aktiv 98 / 87 40% 2 03.11.2027 -
Matias Siltanen Malmo FF Aktiv 133 / 121 40% 1 03.11.2027 -
Federico Bonilla River Plate Aktiv 84 / 99 40% 1 29.10.2027 -
Francisco Valdés Universidad Catolica Aktiv 77 / 88 40% 1 28.10.2027 -
Thiago Sabella Banfield Aktiv 99 / 105 40% 2 26.10.2027 -
Duván Córdoba Jaguares Aktiv 87 / 101 40% 1 20.10.2027 -
Máximo Casalnuovo Morón Aktiv 74 / 89 40% 1 18.10.2027 -
Ignacio Cardozo Vélez Aktiv 88 / 100 40% 1 17.10.2027 -
Luis Montilla Zorya Aktiv 91 / 97 40% 1 14.10.2027 -
Alfonso Álvarez Ferro Carril Oeste Aktiv 104 / 97 40% 1 13.10.2027 -
Tomás Parmo Independiente Aktiv 121 / 130 40% 1 10.10.2027 -
Sebastián Ramírez Aguilas Doradas Aktiv 110 / 115 40% 1 08.10.2027 -
Gabriel Lopes San Marcos de Arica Aktiv 94 / 104 40% 1 08.10.2027 -
Joel Orlando Almagro Aktiv 113 / 122 40% 1 05.10.2027 -
Ignacio Coscio Huracán Aktiv 87 / 95 40% 1 17.09.2027 -
Carlos Nemocón Santa Fe Aktiv 97 / 100 40% 1 16.09.2027 -
Thiago Nahuel Independiente Aktiv 82 / 95 40% 1 16.09.2027 -
Emanuel Bonda Argentinos Juniors Aktiv 96 / 88 40% 1 10.09.2027 -
Lisandro Tejada San Martín SJ Aktiv 85 / 98 40% 1 10.09.2027 -
Alex Amaefula Kun Khalifat Aktiv 82 / 91 40% 1 01.09.2027 -
Didier Dawson Envigado Aktiv 110 / 115 40% 1 09.08.2027 -
Luka Andrade Montevideo City Torque Aktiv 100 / 108 40% 1 09.08.2027 -
Simón Pinto Huachipato Aktiv 112 / 102 40% 1 12.07.2027 -
José Pachuca Puebla Aktiv 97 / 110 40% 2 02.06.2027 -
Bongani Jali Free State Stars Aktiv 78 / 103 40% 1 02.06.2027 -
Johannes Eggestein Orlando City Verhandlung 125 / 125 68% 1 01.06.2027 -
Marc Cardona Andorra Aktiv 124 / 114 51% 1 01.06.2027 -
Leo Román Deportivo La Coruña Aktiv 151 / 158 40% 14 29.05.2027 -
Jordan Amissah Burton Albion Aktiv 100 / 99 40% 5 29.05.2027 -
George Wickens Lincoln City Aktiv 110 / 123 40% 3 28.05.2027 -
Sergio Barlocco Trento Aktiv 112 / 109 40% 1 27.05.2027 -
Daniel Awuni Aduana Stars Aktiv 76 / 84 40% 1 27.05.2027 -
Caleb Yirenkyi Coventry City Aktiv 140 / 143 40% 1 27.05.2027 -
Joe Gelhardt Hull City Aktiv 135 / 129 40% 1 26.05.2027 -
Myles Roberts Cambridge United Aktiv 110 / 102 40% 2 24.05.2027 -
Murphy Cooper Plymouth Argyle Aktiv 112 / 118 40% 3 23.05.2027 -
Lander Astiazarán Real Sociedad Aktiv 104 / 112 67% 3 23.05.2027 -
Nikolaus Wurmbrand Girona Aktiv 111 / 126 40% 1 23.05.2027 -
Cesare Galeotti Trapani Aktiv 116 / 109 40% 1 22.05.2027 -
Leo Castledine Middlesbrough Aktiv 123 / 126 40% 2 21.05.2027 -
Alex Lowry Wycombe Wanderers Aktiv 126 / 112 40% 1 19.05.2027 -
Ethan Galbraith Swansea City Aktiv 123 / 139 40% 1 19.05.2027 -
Héctor Holguín Morelia Aktiv 129 / 123 40% 3 18.05.2027 -
Rocco Ríos Novo Sivasspor Aktiv 111 / 116 40% 6 18.05.2027 -
Will Dennis Milton Keynes Dons Aktiv 113 / 110 40% 3 16.05.2027 -
Ivor Pandur Hull City Aktiv 137 / 123 40% 1 16.05.2027 -
Izan Merino Málaga Aktiv 128 / 124 40% 2 15.05.2027 -
Jenson Jones Walsall Aktiv 99 / 105 40% 1 15.05.2027 -
Anthony Patterson Wrexham Aktiv 128 / 124 40% 4 14.05.2027 -
Richard Ledezma Guadalajara Aktiv 144 / 131 40% 1 11.05.2027 -
Filippo Manfrin Arzignano Aktiv 95 / 103 40% 1 09.05.2027 -
Radek Vítek Middlesbrough Aktiv 139 / 148 40% 4 08.05.2027 -
Diego Enríquez Sporting Cristal Aktiv 137 / 135 40% 1 08.05.2027 -
João Teixeira Porto Aktiv 115 / 109 40% 1 07.05.2027 -
Monty Batlhabane Polokwane City Aktiv 89 / 103 40% 1 07.05.2027 -
Jack Rudoni Coventry City Aktiv 131 / 137 40% 1 05.05.2027 -
Manuel Roffo Hajduk Split Aktiv 135 / 128 40% 4 03.05.2027 -
João Gonçalves Oliveirense Aktiv 110 / 121 40% 3 03.05.2027 -
Josh Keeley Luton Town Aktiv 120 / 130 40% 2 02.05.2027 -
Elia Caprile Cagliari Aktiv 147 / 151 40% 4 30.04.2027 -
Davide Mastrantonio Latina Aktiv 100 / 97 40% 1 30.04.2027 -
Jan Bačkovský Dukla Prague Aktiv 106 / 114 40% 1 28.04.2027 -
Guillaume Restes Toulouse FC Aktiv 133 / 138 40% 2 27.04.2027 -
Cezary Miszta Rio Ave Aktiv 130 / 139 40% 1 25.04.2027 -
Manu Rodríguez Gijón Aktiv 102 / 110 40% 1 23.04.2027 -
Lovro Zvonarek Estrela da Amadora Aktiv 112 / 125 40% 1 21.04.2027 -
Derensili Sanches Fernandes Huddersfield Town Aktiv 130 / 117 40% 1 20.04.2027 -
Omar Campos Cruz Azul Aktiv 117 / 122 40% 1 20.04.2027 -
Adriel Torreense Aktiv 120 / 123 40% 2 18.04.2027 -
Elia Boseggia Novara Aktiv 112 / 111 40% 1 16.04.2027 -
Lucas Lavagnino Valladolid Aktiv 123 / 114 40% 2 14.04.2027 -
Oufa Shobeir MC Alger Aktiv 131 / 134 40% 1 13.04.2027 -
Gonçalo Tabuaço Maritimo Aktiv 111 / 102 40% 1 13.04.2027 -
Jonmi Magunagoitia Eibar Aktiv 141 / 134 40% 3 12.04.2027 -
Francisco González Tijuana Aktiv 106 / 114 40% 1 12.04.2027 -
Yael Padilla Tijuana Aktiv 108 / 122 40% 2 11.04.2027 -
Oscar Schwartau Norwich City Aktiv 123 / 129 40% 1 11.04.2027 -
Matteo Rizzo Cosenza Aktiv 107 / 106 40% 1 11.04.2027 -
João Valido Chaves Aktiv 126 / 110 40% 2 09.04.2027 -
David Larrubia Málaga Aktiv 145 / 125 40% 2 07.04.2027 -
Finn Azaz Southampton Aktiv 138 / 124 40% 1 07.04.2027 -
Gladson Amoah Liberty Professionals Aktiv 100 / 99 40% 2 06.04.2027 -
Leo Kokubo Sint-Truiden Aktiv 115 / 121 40% 1 02.04.2027 -
Jeremy Márquez Cruz Azul Aktiv 133 / 134 40% 1 02.04.2027 -
Andrés Martín Racing Santander Aktiv 134 / 138 40% 1 02.04.2027 -
Andreas Jungdal Westerlo Aktiv 134 / 128 40% 1 31.03.2027 -
Gabriele Bertolini Vicenza Aktiv 98 / 109 40% 1 31.03.2027 -
Egoitz Arana Real Sociedad Aktiv 102 / 113 67% 3 27.03.2027 Beobachten
Igor Nikić Mirandés Aktiv 129 / 118 40% 2 26.03.2027 -
Alexandr Koryakin Krasnodar Aktiv 121 / 116 40% 1 22.03.2027 -
William Rovida Pro Patria Aktiv 93 / 101 40% 1 22.03.2027 -
Sorriso Famalicao Aktiv 141 / 129 40% 1 17.03.2027 -
Peter Amidu Acquah Asante Kotoko Aktiv 85 / 86 40% 1 14.03.2027 -
Bilal Bayazıt Kayserispor Aktiv 112 / 129 40% 1 11.03.2027 -
Juan Diego Castillo Vitoria Guimaraes Aktiv 121 / 125 40% 1 10.03.2027 -
Mohamadou Kanté Crawley Town Aktiv 116 / 119 40% 1 08.03.2027 -
Víctor Guzmán Sporting CP Aktiv 89 / 104 40% 1 08.03.2027 -
Carlos Vicente Birmingham Aktiv 145 / 138 40% 1 07.03.2027 -
Kazunari Kita Real Sociedad Aktiv 92 / 103 67% 1 06.03.2027 Beobachten
Ilja Tuseev Chelyabinsk Aktiv 87 / 90 40% 1 03.03.2027 -
Itumeleng Grobler Free State Stars Aktiv 96 / 104 40% 2 02.03.2027 -
Michael Cooper Sheffield United Aktiv 137 / 129 40% 3 01.03.2027 -
Zach Hemming Chesterfield Aktiv 100 / 114 40% 1 01.03.2027 -
Vitor Hugo Lusitânia Lourosa Aktiv 94 / 101 40% 1 26.02.2027 -
Fran Vieites Walsall Aktiv 134 / 123 40% 1 26.02.2027 -
Romelle Donovan Brentford Aktiv 111 / 124 40% 1 24.02.2027 -
Assane Diao Como Aktiv 141 / 141 40% 1 20.02.2027 -
Yurii-Volodymyr Hereta Rukh Aktiv 112 / 107 40% 1 18.02.2027 -
Sławomir Abramowicz Jagiellonia Aktiv 136 / 132 40% 1 17.02.2027 -
Nathan Bishop AFC Wimbledon Aktiv 108 / 110 40% 2 14.02.2027 -
Othmane Maamma Watford Aktiv 124 / 123 40% 1 14.02.2027 -
Jacques Gautier Chamois Niortais Aktiv 110 / 120 40% 1 13.02.2027 -
Samir El Mourabet RC Strasbourg Aktiv 118 / 124 40% 1 11.02.2027 -
Bernardes Benfica Aktiv 88 / 109 40% 1 11.02.2027 -
Rivaldo Mkhize Black Aces Aktiv 61 / 76 40% 1 08.02.2027 -
Mateus Mané Burnley Aktiv 133 / 142 40% 1 07.02.2027 -
Filip Marschall Stevenage Aktiv 99 / 118 40% 1 04.02.2027 -
Oswin Appollis Orlando Pirates Aktiv 101 / 125 40% 1 18.01.2027 -
Sampson Dweh Mallorca Aktiv 133 / 134 66% 1 01.01.2027 Befürworten
Jefry Zapata Aldosivi Verhandlung 118 / 118 66% 1 01.01.2027 -
Agustín Medina Lanús Aktiv 108 / 124 40% 1 20.11.2026 -
Sergi Domínguez Dinamo Zagreb Aktiv 111 / 121 40% 1 03.11.2026 -
Pedro Bravo FC Midtjylland Aktiv 131 / 128 40% 1 03.11.2026 -
Ian Garguez Palestino Aktiv 94 / 120 40% 1 12.10.2026 -
Felipe Faúndez O'Higgins Aktiv 110 / 111 40% 1 07.10.2026 -
Luis Maturana Independiente Medellin Aktiv 100 / 94 40% 1 05.10.2026 -
Eric Ramírez Unión de Santa Fe Aktiv 107 / 113 40% 1 06.08.2026 -